sensor_id;sensor_type;location;lat;lon;timestamp;pressure;altitude;pressure_sealevel;temperature;humidity
15694;BME280;7947;48.834;9.132;2023-04-28T00:01:04;98003.91;;;12.08;75.35
15694;BME280;7947;48.834;9.132;2023-04-28T00:04:07;98004.06;;;12.16;74.68
15694;BME280;7947;48.834;9.132;2023-04-28T00:07:10;98007.69;;;12.25;74.77
15694;BME280;7947;48.834;9.132;2023-04-28T00:10:14;97989.34;;;12.32;74.57
15694;BME280;7947;48.834;9.132;2023-04-28T00:13:17;97990.28;;;12.41;73.90
15694;BME280;7947;48.834;9.132;2023-04-28T00:16:20;97993.91;;;12.50;73.45
15694;BME280;7947;48.834;9.132;2023-04-28T00:19:23;98001.34;;;12.58;74.00
15694;BME280;7947;48.834;9.132;2023-04-28T00:22:26;97983.75;;;12.66;74.19
15694;BME280;7947;48.834;9.132;2023-04-28T00:25:30;97984.50;;;12.72;73.47
15694;BME280;7947;48.834;9.132;2023-04-28T00:28:33;97982.53;;;12.77;72.55
15694;BME280;7947;48.834;9.132;2023-04-28T00:31:36;97981.91;;;12.80;72.60
15694;BME280;7947;48.834;9.132;2023-04-28T00:34:39;97977.84;;;12.83;72.69
15694;BME280;7947;48.834;9.132;2023-04-28T00:37:41;97979.44;;;12.84;72.96
15694;BME280;7947;48.834;9.132;2023-04-28T00:40:46;97976.47;;;12.85;72.84
15694;BME280;7947;48.834;9.132;2023-04-28T00:43:49;97971.88;;;12.86;72.76
15694;BME280;7947;48.834;9.132;2023-04-28T00:46:52;97975.06;;;12.88;72.53
15694;BME280;7947;48.834;9.132;2023-04-28T00:49:55;97968.63;;;12.89;72.41
15694;BME280;7947;48.834;9.132;2023-04-28T00:52:59;97977.75;;;12.88;73.06
15694;BME280;7947;48.834;9.132;2023-04-28T00:56:03;97958.63;;;12.89;72.78
15694;BME280;7947;48.834;9.132;2023-04-28T00:59:07;97967.81;;;12.88;72.97
15694;BME280;7947;48.834;9.132;2023-04-28T01:02:09;97969.91;;;12.91;72.86
15694;BME280;7947;48.834;9.132;2023-04-28T01:05:18;97965.91;;;12.89;72.31
15694;BME280;7947;48.834;9.132;2023-04-28T01:08:22;97962.06;;;12.95;72.99
15694;BME280;7947;48.834;9.132;2023-04-28T01:11:26;97957.75;;;12.94;73.52
15694;BME280;7947;48.834;9.132;2023-04-28T01:14:29;97962.94;;;12.90;73.58
15694;BME280;7947;48.834;9.132;2023-04-28T01:17:32;97951.34;;;12.90;73.80
15694;BME280;7947;48.834;9.132;2023-04-28T01:20:35;97943.09;;;12.86;74.49
15694;BME280;7947;48.834;9.132;2023-04-28T01:23:38;97935.50;;;12.88;74.24
15694;BME280;7947;48.834;9.132;2023-04-28T01:26:42;97934.13;;;12.91;73.67
15694;BME280;7947;48.834;9.132;2023-04-28T01:29:45;97933.53;;;12.94;73.43
15694;BME280;7947;48.834;9.132;2023-04-28T01:32:48;97926.47;;;12.98;74.04
15694;BME280;7947;48.834;9.132;2023-04-28T01:35:56;97922.69;;;12.99;73.67
15694;BME280;7947;48.834;9.132;2023-04-28T01:38:59;97920.06;;;12.94;74.90
15694;BME280;7947;48.834;9.132;2023-04-28T01:42:03;97924.59;;;12.98;75.22
15694;BME280;7947;48.834;9.132;2023-04-28T01:45:07;97921.09;;;12.98;72.58
15694;BME280;7947;48.834;9.132;2023-04-28T01:48:10;97926.13;;;13.04;72.62
15694;BME280;7947;48.834;9.132;2023-04-28T01:51:13;97917.66;;;13.11;73.56
15694;BME280;7947;48.834;9.132;2023-04-28T01:54:15;97911.69;;;13.14;70.10
15694;BME280;7947;48.834;9.132;2023-04-28T01:57:20;97913.19;;;13.06;69.59
15694;BME280;7947;48.834;9.132;2023-04-28T02:00:23;97914.56;;;13.04;69.37
15694;BME280;7947;48.834;9.132;2023-04-28T02:03:26;97899.75;;;13.01;69.94
15694;BME280;7947;48.834;9.132;2023-04-28T02:06:29;97900.28;;;13.03;69.98
15694;BME280;7947;48.834;9.132;2023-04-28T02:09:32;97891.63;;;13.06;72.76
15694;BME280;7947;48.834;9.132;2023-04-28T02:12:36;97893.81;;;13.04;72.42
15694;BME280;7947;48.834;9.132;2023-04-28T02:15:39;97893.47;;;12.92;73.24
15694;BME280;7947;48.834;9.132;2023-04-28T02:18:42;97896.81;;;12.84;73.69
15694;BME280;7947;48.834;9.132;2023-04-28T02:21:45;97899.22;;;12.86;73.53
15694;BME280;7947;48.834;9.132;2023-04-28T02:24:48;97895.84;;;12.94;76.09
15694;BME280;7947;48.834;9.132;2023-04-28T02:27:52;97890.47;;;12.94;75.46
15694;BME280;7947;48.834;9.132;2023-04-28T02:31:02;97878.19;;;12.88;74.60
15694;BME280;7947;48.834;9.132;2023-04-28T02:34:05;97881.38;;;12.90;74.75
15694;BME280;7947;48.834;9.132;2023-04-28T02:37:08;97866.25;;;12.94;73.92
15694;BME280;7947;48.834;9.132;2023-04-28T02:40:11;97877.41;;;13.01;73.52
15694;BME280;7947;48.834;9.132;2023-04-28T02:43:16;97879.56;;;13.04;73.46
15694;BME280;7947;48.834;9.132;2023-04-28T02:46:18;97889.22;;;13.05;74.14
15694;BME280;7947;48.834;9.132;2023-04-28T02:49:21;97894.84;;;13.08;73.58
15694;BME280;7947;48.834;9.132;2023-04-28T02:52:24;97889.97;;;13.10;72.40
15694;BME280;7947;48.834;9.132;2023-04-28T02:55:27;97895.53;;;13.14;73.34
15694;BME280;7947;48.834;9.132;2023-04-28T02:58:31;97906.50;;;13.17;75.00
15694;BME280;7947;48.834;9.132;2023-04-28T03:01:34;97905.63;;;13.22;75.36
15694;BME280;7947;48.834;9.132;2023-04-28T03:04:37;97911.59;;;13.19;75.09
15694;BME280;7947;48.834;9.132;2023-04-28T03:07:40;97910.28;;;13.16;76.54
15694;BME280;7947;48.834;9.132;2023-04-28T03:10:43;97911.00;;;13.08;77.78
15694;BME280;7947;48.834;9.132;2023-04-28T03:13:47;97907.44;;;12.94;78.00
15694;BME280;7947;48.834;9.132;2023-04-28T03:16:50;97905.81;;;12.93;79.20
15694;BME280;7947;48.834;9.132;2023-04-28T03:19:53;97891.56;;;12.93;78.62
15694;BME280;7947;48.834;9.132;2023-04-28T03:22:55;97873.00;;;12.91;79.26
15694;BME280;7947;48.834;9.132;2023-04-28T03:25:58;97889.16;;;12.91;80.09
15694;BME280;7947;48.834;9.132;2023-04-28T03:29:02;97884.00;;;12.95;79.23
15694;BME280;7947;48.834;9.132;2023-04-28T03:32:05;97870.13;;;12.88;78.92
15694;BME280;7947;48.834;9.132;2023-04-28T03:35:09;97868.22;;;12.88;79.93
15694;BME280;7947;48.834;9.132;2023-04-28T03:38:11;97880.16;;;12.82;80.33
15694;BME280;7947;48.834;9.132;2023-04-28T03:41:14;97883.16;;;12.81;82.08
15694;BME280;7947;48.834;9.132;2023-04-28T03:44:18;97881.94;;;12.73;82.57
15694;BME280;7947;48.834;9.132;2023-04-28T03:47:22;97875.47;;;12.74;83.59
15694;BME280;7947;48.834;9.132;2023-04-28T03:50:24;97865.38;;;12.66;83.48
15694;BME280;7947;48.834;9.132;2023-04-28T03:53:27;97861.50;;;12.72;83.45
15694;BME280;7947;48.834;9.132;2023-04-28T03:56:30;97866.81;;;12.77;83.25
15694;BME280;7947;48.834;9.132;2023-04-28T03:59:34;97856.63;;;12.74;83.47
15694;BME280;7947;48.834;9.132;2023-04-28T04:02:37;97864.19;;;12.72;84.32
15694;BME280;7947;48.834;9.132;2023-04-28T04:05:40;97850.31;;;12.65;84.52
15694;BME280;7947;48.834;9.132;2023-04-28T04:08:44;97861.38;;;12.63;84.74
15694;BME280;7947;48.834;9.132;2023-04-28T04:11:47;97858.97;;;12.62;85.38
15694;BME280;7947;48.834;9.132;2023-04-28T04:14:51;97851.00;;;12.57;85.20
15694;BME280;7947;48.834;9.132;2023-04-28T04:17:53;97850.44;;;12.60;85.03
15694;BME280;7947;48.834;9.132;2023-04-28T04:20:57;97851.03;;;12.70;85.87
15694;BME280;7947;48.834;9.132;2023-04-28T04:24:00;97848.16;;;12.67;84.93
15694;BME280;7947;48.834;9.132;2023-04-28T04:27:02;97851.66;;;12.67;85.05
15694;BME280;7947;48.834;9.132;2023-04-28T04:30:08;97853.44;;;12.72;84.62
15694;BME280;7947;48.834;9.132;2023-04-28T04:33:11;97853.72;;;12.70;85.17
15694;BME280;7947;48.834;9.132;2023-04-28T04:36:14;97837.78;;;12.74;84.57
15694;BME280;7947;48.834;9.132;2023-04-28T04:39:17;97846.56;;;12.80;84.36
15694;BME280;7947;48.834;9.132;2023-04-28T04:42:20;97839.31;;;12.80;84.68
15694;BME280;7947;48.834;9.132;2023-04-28T04:45:27;97850.88;;;12.81;85.34
15694;BME280;7947;48.834;9.132;2023-04-28T04:48:30;97848.09;;;12.86;85.71
15694;BME280;7947;48.834;9.132;2023-04-28T04:51:32;97839.50;;;12.84;86.08
15694;BME280;7947;48.834;9.132;2023-04-28T04:54:35;97842.19;;;12.84;86.58
15694;BME280;7947;48.834;9.132;2023-04-28T04:57:38;97841.69;;;12.82;87.03
15694;BME280;7947;48.834;9.132;2023-04-28T05:00:42;97840.31;;;12.84;87.86
15694;BME280;7947;48.834;9.132;2023-04-28T05:03:45;97838.44;;;12.85;87.83
15694;BME280;7947;48.834;9.132;2023-04-28T05:06:48;97832.53;;;12.83;87.99
15694;BME280;7947;48.834;9.132;2023-04-28T05:09:51;97840.91;;;12.81;88.66
15694;BME280;7947;48.834;9.132;2023-04-28T05:12:53;97840.31;;;12.84;88.71
15694;BME280;7947;48.834;9.132;2023-04-28T05:15:58;97845.50;;;12.81;88.64
15694;BME280;7947;48.834;9.132;2023-04-28T05:19:01;97843.59;;;12.81;88.39
15694;BME280;7947;48.834;9.132;2023-04-28T05:22:03;97846.00;;;12.83;88.45
15694;BME280;7947;48.834;9.132;2023-04-28T05:25:08;97842.81;;;12.81;88.15
15694;BME280;7947;48.834;9.132;2023-04-28T05:28:11;97853.06;;;12.79;88.95
15694;BME280;7947;48.834;9.132;2023-04-28T05:31:15;97848.47;;;12.79;89.29
15694;BME280;7947;48.834;9.132;2023-04-28T05:34:18;97843.31;;;12.83;90.27
15694;BME280;7947;48.834;9.132;2023-04-28T05:37:20;97844.69;;;12.80;90.48
15694;BME280;7947;48.834;9.132;2023-04-28T05:40:23;97848.09;;;12.86;90.80
15694;BME280;7947;48.834;9.132;2023-04-28T05:43:27;97842.69;;;12.86;90.68
15694;BME280;7947;48.834;9.132;2023-04-28T05:46:31;97843.69;;;12.90;92.16
15694;BME280;7947;48.834;9.132;2023-04-28T05:49:35;97845.53;;;12.94;92.33
15694;BME280;7947;48.834;9.132;2023-04-28T05:52:38;97841.72;;;12.95;92.32
15694;BME280;7947;48.834;9.132;2023-04-28T05:55:41;97829.56;;;12.98;93.20
15694;BME280;7947;48.834;9.132;2023-04-28T05:58:44;97829.78;;;13.01;93.37
15694;BME280;7947;48.834;9.132;2023-04-28T06:01:49;97827.59;;;13.03;93.13
15694;BME280;7947;48.834;9.132;2023-04-28T06:04:52;97837.53;;;13.03;93.58
15694;BME280;7947;48.834;9.132;2023-04-28T06:07:55;97832.41;;;13.06;93.20
15694;BME280;7947;48.834;9.132;2023-04-28T06:10:58;97828.31;;;13.09;92.89
15694;BME280;7947;48.834;9.132;2023-04-28T06:14:01;97833.41;;;13.10;93.18
15694;BME280;7947;48.834;9.132;2023-04-28T06:17:05;97838.19;;;13.13;93.18
15694;BME280;7947;48.834;9.132;2023-04-28T06:20:08;97834.13;;;13.16;93.19
15694;BME280;7947;48.834;9.132;2023-04-28T06:23:14;97833.00;;;13.17;93.76
15694;BME280;7947;48.834;9.132;2023-04-28T06:26:16;97837.31;;;13.18;93.73
15694;BME280;7947;48.834;9.132;2023-04-28T06:29:19;97835.31;;;13.23;93.12
15694;BME280;7947;48.834;9.132;2023-04-28T06:32:25;97832.00;;;13.26;92.73
15694;BME280;7947;48.834;9.132;2023-04-28T06:35:28;97823.63;;;13.28;92.97
15694;BME280;7947;48.834;9.132;2023-04-28T06:38:31;97830.81;;;13.32;93.56
15694;BME280;7947;48.834;9.132;2023-04-28T06:41:34;97822.16;;;13.35;93.78
15694;BME280;7947;48.834;9.132;2023-04-28T06:44:37;97819.66;;;13.39;94.75
15694;BME280;7947;48.834;9.132;2023-04-28T06:47:41;97819.03;;;13.42;94.89
15694;BME280;7947;48.834;9.132;2023-04-28T06:50:44;97812.06;;;13.41;95.18
15694;BME280;7947;48.834;9.132;2023-04-28T06:53:47;97817.75;;;13.39;95.58
15694;BME280;7947;48.834;9.132;2023-04-28T06:56:51;97818.34;;;13.36;95.98
15694;BME280;7947;48.834;9.132;2023-04-28T06:59:54;97815.34;;;13.38;96.16
15694;BME280;7947;48.834;9.132;2023-04-28T07:02:58;97805.38;;;13.38;96.13
15694;BME280;7947;48.834;9.132;2023-04-28T07:06:02;97804.50;;;13.43;96.10
15694;BME280;7947;48.834;9.132;2023-04-28T07:09:05;97800.00;;;13.38;96.40
15694;BME280;7947;48.834;9.132;2023-04-28T07:12:08;97796.81;;;13.36;96.61
15694;BME280;7947;48.834;9.132;2023-04-28T07:15:11;97793.63;;;13.34;97.21
15694;BME280;7947;48.834;9.132;2023-04-28T07:18:15;97796.31;;;13.34;97.29
15694;BME280;7947;48.834;9.132;2023-04-28T07:21:18;97800.63;;;13.35;97.57
15694;BME280;7947;48.834;9.132;2023-04-28T07:24:22;97784.34;;;13.40;98.02
15694;BME280;7947;48.834;9.132;2023-04-28T07:27:27;97792.31;;;13.45;98.20
15694;BME280;7947;48.834;9.132;2023-04-28T07:30:30;97788.72;;;13.50;97.97
15694;BME280;7947;48.834;9.132;2023-04-28T07:33:34;97784.31;;;13.54;98.34
15694;BME280;7947;48.834;9.132;2023-04-28T07:36:37;97788.31;;;13.56;98.19
15694;BME280;7947;48.834;9.132;2023-04-28T07:39:40;97788.59;;;13.55;98.61
15694;BME280;7947;48.834;9.132;2023-04-28T07:42:42;97793.41;;;13.58;98.82
15694;BME280;7947;48.834;9.132;2023-04-28T07:45:45;97796.28;;;13.62;99.06
15694;BME280;7947;48.834;9.132;2023-04-28T07:48:52;97791.09;;;13.65;98.86
15694;BME280;7947;48.834;9.132;2023-04-28T07:51:55;97791.47;;;13.72;98.89
15694;BME280;7947;48.834;9.132;2023-04-28T07:54:58;97792.16;;;13.78;99.01
15694;BME280;7947;48.834;9.132;2023-04-28T07:58:03;97805.03;;;13.81;99.31
15694;BME280;7947;48.834;9.132;2023-04-28T08:01:07;97809.31;;;13.82;99.05
15694;BME280;7947;48.834;9.132;2023-04-28T08:04:11;97814.72;;;13.82;98.92
15694;BME280;7947;48.834;9.132;2023-04-28T08:07:14;97818.50;;;13.81;98.43
15694;BME280;7947;48.834;9.132;2023-04-28T08:10:17;97823.69;;;13.77;98.69
15694;BME280;7947;48.834;9.132;2023-04-28T08:13:20;97825.59;;;13.77;98.74
15694;BME280;7947;48.834;9.132;2023-04-28T08:16:23;97839.19;;;13.72;99.18
15694;BME280;7947;48.834;9.132;2023-04-28T08:19:27;97850.97;;;13.76;98.85
15694;BME280;7947;48.834;9.132;2023-04-28T08:22:30;97856.38;;;13.62;98.96
15694;BME280;7947;48.834;9.132;2023-04-28T08:25:33;97854.88;;;13.56;99.23
15694;BME280;7947;48.834;9.132;2023-04-28T08:28:35;97851.97;;;13.52;99.43
15694;BME280;7947;48.834;9.132;2023-04-28T08:31:38;97849.28;;;13.52;100.00
15694;BME280;7947;48.834;9.132;2023-04-28T08:34:42;97854.47;;;13.49;100.00
15694;BME280;7947;48.834;9.132;2023-04-28T08:37:45;97852.97;;;13.56;100.00
15694;BME280;7947;48.834;9.132;2023-04-28T08:40:50;97852.56;;;13.63;100.00
15694;BME280;7947;48.834;9.132;2023-04-28T08:43:53;97853.75;;;13.71;100.00
15694;BME280;7947;48.834;9.132;2023-04-28T08:46:58;97847.28;;;13.72;99.66
15694;BME280;7947;48.834;9.132;2023-04-28T08:50:06;97853.16;;;13.74;100.00
15694;BME280;7947;48.834;9.132;2023-04-28T08:53:10;97866.72;;;13.82;100.00
15694;BME280;7947;48.834;9.132;2023-04-28T08:56:14;97868.91;;;13.80;100.00
15694;BME280;7947;48.834;9.132;2023-04-28T08:59:19;97866.94;;;13.86;100.00
15694;BME280;7947;48.834;9.132;2023-04-28T09:02:22;97868.69;;;13.90;100.00
15694;BME280;7947;48.834;9.132;2023-04-28T09:05:26;97871.88;;;13.92;100.00
15694;BME280;7947;48.834;9.132;2023-04-28T09:08:30;97877.38;;;14.01;100.00
15694;BME280;7947;48.834;9.132;2023-04-28T09:11:32;97875.06;;;14.08;100.00
15694;BME280;7947;48.834;9.132;2023-04-28T09:14:37;97881.75;;;14.10;100.00
15694;BME280;7947;48.834;9.132;2023-04-28T09:17:47;97869.84;;;14.11;100.00
15694;BME280;7947;48.834;9.132;2023-04-28T09:21:01;97878.44;;;14.13;100.00
15694;BME280;7947;48.834;9.132;2023-04-28T09:24:05;97869.75;;;14.16;100.00
15694;BME280;7947;48.834;9.132;2023-04-28T09:27:09;97870.31;;;14.27;100.00
15694;BME280;7947;48.834;9.132;2023-04-28T09:30:12;97873.00;;;14.27;100.00
15694;BME280;7947;48.834;9.132;2023-04-28T09:33:15;97877.22;;;14.33;100.00
15694;BME280;7947;48.834;9.132;2023-04-28T09:36:26;97874.22;;;14.34;100.00
15694;BME280;7947;48.834;9.132;2023-04-28T09:39:31;97873.00;;;14.40;100.00
15694;BME280;7947;48.834;9.132;2023-04-28T09:42:35;97881.47;;;14.48;100.00
15694;BME280;7947;48.834;9.132;2023-04-28T09:45:38;97884.03;;;14.53;100.00
15694;BME280;7947;48.834;9.132;2023-04-28T09:48:42;97886.44;;;14.54;100.00
15694;BME280;7947;48.834;9.132;2023-04-28T09:51:47;97868.72;;;14.62;100.00
15694;BME280;7947;48.834;9.132;2023-04-28T09:54:52;97864.53;;;14.78;100.00
15694;BME280;7947;48.834;9.132;2023-04-28T09:57:55;97871.03;;;14.99;100.00
15694;BME280;7947;48.834;9.132;2023-04-28T10:01:01;97860.94;;;15.13;100.00
15694;BME280;7947;48.834;9.132;2023-04-28T10:04:04;97858.94;;;15.27;100.00
15694;BME280;7947;48.834;9.132;2023-04-28T10:07:10;97859.03;;;15.44;100.00
15694;BME280;7947;48.834;9.132;2023-04-28T10:10:13;97852.59;;;15.71;100.00
15694;BME280;7947;48.834;9.132;2023-04-28T10:13:18;97851.69;;;15.84;100.00
15694;BME280;7947;48.834;9.132;2023-04-28T10:16:21;97852.34;;;15.98;100.00
15694;BME280;7947;48.834;9.132;2023-04-28T10:19:25;97851.56;;;16.14;99.78
15694;BME280;7947;48.834;9.132;2023-04-28T10:22:40;97851.13;;;16.30;100.00
15694;BME280;7947;48.834;9.132;2023-04-28T10:25:53;97841.22;;;16.42;100.00
15694;BME280;7947;48.834;9.132;2023-04-28T10:28:57;97845.22;;;16.62;99.65
15694;BME280;7947;48.834;9.132;2023-04-28T10:32:23;97845.06;;;16.84;99.27
15694;BME280;7947;48.834;9.132;2023-04-28T10:35:39;97847.09;;;16.87;98.13
15694;BME280;7947;48.834;9.132;2023-04-28T10:39:08;97845.97;;;16.88;97.18
15694;BME280;7947;48.834;9.132;2023-04-28T10:42:50;97846.31;;;16.86;96.78
15694;BME280;7947;48.834;9.132;2023-04-28T10:46:01;97853.94;;;16.93;97.80
15694;BME280;7947;48.834;9.132;2023-04-28T10:49:05;97859.03;;;16.94;98.55
15694;BME280;7947;48.834;9.132;2023-04-28T10:56:04;97853.59;;;17.03;98.22
15694;BME280;7947;48.834;9.132;2023-04-28T10:59:25;97858.56;;;17.01;97.68
15694;BME280;7947;48.834;9.132;2023-04-28T11:02:41;97862.03;;;17.01;97.62
15694;BME280;7947;48.834;9.132;2023-04-28T11:06:16;97866.69;;;17.01;95.87
15694;BME280;7947;48.834;9.132;2023-04-28T11:09:46;97859.19;;;16.98;96.18
15694;BME280;7947;48.834;9.132;2023-04-28T11:16:28;97852.47;;;17.04;95.35
15694;BME280;7947;48.834;9.132;2023-04-28T11:19:33;97856.75;;;17.13;93.93
15694;BME280;7947;48.834;9.132;2023-04-28T11:22:37;97860.94;;;17.11;92.67
15694;BME280;7947;48.834;9.132;2023-04-28T11:25:52;97855.94;;;17.13;93.50
15694;BME280;7947;48.834;9.132;2023-04-28T11:28:56;97852.13;;;17.14;93.66
15694;BME280;7947;48.834;9.132;2023-04-28T11:32:00;97851.66;;;17.12;94.25
15694;BME280;7947;48.834;9.132;2023-04-28T11:35:04;97850.22;;;17.14;94.27
15694;BME280;7947;48.834;9.132;2023-04-28T11:38:10;97851.19;;;17.10;93.63
15694;BME280;7947;48.834;9.132;2023-04-28T11:41:13;97849.09;;;17.15;92.44
15694;BME280;7947;48.834;9.132;2023-04-28T11:44:17;97840.28;;;17.27;90.75
15694;BME280;7947;48.834;9.132;2023-04-28T11:47:32;97843.13;;;17.31;89.28
15694;BME280;7947;48.834;9.132;2023-04-28T11:50:35;97849.69;;;17.30;89.56
15694;BME280;7947;48.834;9.132;2023-04-28T11:53:42;97829.31;;;17.24;90.92
15694;BME280;7947;48.834;9.132;2023-04-28T11:56:45;97837.75;;;17.22;92.07
15694;BME280;7947;48.834;9.132;2023-04-28T11:59:48;97834.72;;;17.24;91.42
15694;BME280;7947;48.834;9.132;2023-04-28T12:02:53;97839.03;;;17.25;90.13
15694;BME280;7947;48.834;9.132;2023-04-28T12:05:56;97830.59;;;17.26;88.33
15694;BME280;7947;48.834;9.132;2023-04-28T12:08:59;97837.22;;;17.37;87.66
15694;BME280;7947;48.834;9.132;2023-04-28T12:12:06;97843.41;;;17.46;86.52
15694;BME280;7947;48.834;9.132;2023-04-28T12:15:09;97848.69;;;17.51;86.84
15694;BME280;7947;48.834;9.132;2023-04-28T12:18:14;97845.34;;;17.46;87.12
15694;BME280;7947;48.834;9.132;2023-04-28T12:21:20;97839.56;;;17.47;85.00
15694;BME280;7947;48.834;9.132;2023-04-28T12:24:23;97839.44;;;17.44;85.74
15694;BME280;7947;48.834;9.132;2023-04-28T12:27:27;97840.88;;;17.41;86.83
15694;BME280;7947;48.834;9.132;2023-04-28T12:30:31;97847.25;;;17.37;88.59
15694;BME280;7947;48.834;9.132;2023-04-28T12:33:36;97852.72;;;17.28;90.04
15694;BME280;7947;48.834;9.132;2023-04-28T12:36:39;97855.94;;;17.22;92.77
15694;BME280;7947;48.834;9.132;2023-04-28T12:39:42;97864.25;;;17.08;94.09
15694;BME280;7947;48.834;9.132;2023-04-28T12:42:46;97870.19;;;16.93;95.63
15694;BME280;7947;48.834;9.132;2023-04-28T12:45:49;97859.69;;;16.74;96.86
15694;BME280;7947;48.834;9.132;2023-04-28T12:48:54;97863.06;;;16.63;97.06
15694;BME280;7947;48.834;9.132;2023-04-28T12:51:57;97850.50;;;16.58;97.24
15694;BME280;7947;48.834;9.132;2023-04-28T12:55:00;97847.78;;;16.58;97.56
15694;BME280;7947;48.834;9.132;2023-04-28T12:58:03;97837.25;;;16.74;98.03
15694;BME280;7947;48.834;9.132;2023-04-28T13:01:06;97823.53;;;16.79;98.32
15694;BME280;7947;48.834;9.132;2023-04-28T13:04:10;97823.69;;;16.82;98.13
15694;BME280;7947;48.834;9.132;2023-04-28T13:07:15;97833.88;;;16.85;97.89
15694;BME280;7947;48.834;9.132;2023-04-28T13:10:18;97818.44;;;16.86;95.98
15694;BME280;7947;48.834;9.132;2023-04-28T13:13:21;97813.31;;;16.93;96.44
15694;BME280;7947;48.834;9.132;2023-04-28T13:16:25;97822.88;;;16.99;96.55
15694;BME280;7947;48.834;9.132;2023-04-28T13:19:31;97837.50;;;17.06;97.77
15694;BME280;7947;48.834;9.132;2023-04-28T13:22:35;97826.00;;;17.09;97.86
15694;BME280;7947;48.834;9.132;2023-04-28T13:25:37;97814.53;;;17.12;97.46
15694;BME280;7947;48.834;9.132;2023-04-28T13:28:40;97810.47;;;17.27;97.76
15694;BME280;7947;48.834;9.132;2023-04-28T13:31:43;97812.34;;;17.35;96.73
15694;BME280;7947;48.834;9.132;2023-04-28T13:34:48;97816.97;;;17.35;95.60
15694;BME280;7947;48.834;9.132;2023-04-28T13:37:51;97807.16;;;17.22;94.81
15694;BME280;7947;48.834;9.132;2023-04-28T13:41:02;97817.09;;;17.09;94.38
15694;BME280;7947;48.834;9.132;2023-04-28T13:44:04;97820.63;;;17.01;95.15
15694;BME280;7947;48.834;9.132;2023-04-28T13:47:07;97821.44;;;16.93;95.77
15694;BME280;7947;48.834;9.132;2023-04-28T13:50:12;97821.59;;;16.88;95.65
15694;BME280;7947;48.834;9.132;2023-04-28T13:53:15;97812.22;;;16.77;95.55
15694;BME280;7947;48.834;9.132;2023-04-28T13:56:18;97817.81;;;16.72;96.80
15694;BME280;7947;48.834;9.132;2023-04-28T13:59:21;97811.47;;;16.68;97.79
15694;BME280;7947;48.834;9.132;2023-04-28T14:02:24;97802.88;;;16.66;98.82
15694;BME280;7947;48.834;9.132;2023-04-28T14:05:29;97802.22;;;16.69;99.39
15694;BME280;7947;48.834;9.132;2023-04-28T14:08:49;97800.91;;;16.75;100.00
15694;BME280;7947;48.834;9.132;2023-04-28T14:11:51;97785.81;;;16.74;99.83
15694;BME280;7947;48.834;9.132;2023-04-28T14:14:57;97791.38;;;16.77;100.00
15694;BME280;7947;48.834;9.132;2023-04-28T14:18:00;97812.69;;;16.79;100.00
15694;BME280;7947;48.834;9.132;2023-04-28T14:21:04;97793.28;;;16.77;99.72
15694;BME280;7947;48.834;9.132;2023-04-28T14:24:08;97795.38;;;16.71;99.79
15694;BME280;7947;48.834;9.132;2023-04-28T14:27:12;97772.13;;;16.70;100.00
15694;BME280;7947;48.834;9.132;2023-04-28T14:30:15;97788.19;;;16.67;100.00
15694;BME280;7947;48.834;9.132;2023-04-28T14:33:18;97774.34;;;16.68;100.00
15694;BME280;7947;48.834;9.132;2023-04-28T14:36:22;97770.66;;;16.73;100.00
15694;BME280;7947;48.834;9.132;2023-04-28T14:39:25;97770.03;;;16.76;100.00
15694;BME280;7947;48.834;9.132;2023-04-28T14:42:29;97781.34;;;16.78;100.00
15694;BME280;7947;48.834;9.132;2023-04-28T14:45:34;97777.53;;;16.70;100.00
15694;BME280;7947;48.834;9.132;2023-04-28T14:48:37;97776.22;;;16.76;100.00
15694;BME280;7947;48.834;9.132;2023-04-28T14:51:41;97775.09;;;16.86;100.00
15694;BME280;7947;48.834;9.132;2023-04-28T14:54:44;97771.25;;;16.95;100.00
15694;BME280;7947;48.834;9.132;2023-04-28T14:57:48;97779.66;;;17.02;100.00
15694;BME280;7947;48.834;9.132;2023-04-28T15:00:50;97786.34;;;17.05;100.00
15694;BME280;7947;48.834;9.132;2023-04-28T15:03:53;97780.75;;;17.01;100.00
15694;BME280;7947;48.834;9.132;2023-04-28T15:06:58;97777.44;;;16.96;100.00
15694;BME280;7947;48.834;9.132;2023-04-28T15:10:01;97767.25;;;16.93;100.00
15694;BME280;7947;48.834;9.132;2023-04-28T15:13:04;97768.22;;;16.88;100.00
15694;BME280;7947;48.834;9.132;2023-04-28T15:16:08;97764.41;;;16.89;100.00
15694;BME280;7947;48.834;9.132;2023-04-28T15:19:10;97767.91;;;16.90;100.00
15694;BME280;7947;48.834;9.132;2023-04-28T15:22:14;97770.59;;;16.90;100.00
15694;BME280;7947;48.834;9.132;2023-04-28T15:25:17;97766.75;;;16.99;100.00
15694;BME280;7947;48.834;9.132;2023-04-28T15:28:21;97762.91;;;17.09;96.98
15694;BME280;7947;48.834;9.132;2023-04-28T15:31:24;97773.09;;;17.12;94.58
15694;BME280;7947;48.834;9.132;2023-04-28T15:34:27;97767.47;;;17.17;94.45
15694;BME280;7947;48.834;9.132;2023-04-28T15:37:41;97765.16;;;17.07;95.30
15694;BME280;7947;48.834;9.132;2023-04-28T15:40:45;97757.84;;;16.99;95.38
15694;BME280;7947;48.834;9.132;2023-04-28T15:43:47;97760.34;;;17.04;94.64
15694;BME280;7947;48.834;9.132;2023-04-28T15:46:51;97762.31;;;16.95;94.86
15694;BME280;7947;48.834;9.132;2023-04-28T15:49:54;97756.44;;;16.84;94.85
15694;BME280;7947;48.834;9.132;2023-04-28T15:52:58;97760.75;;;16.85;94.20
15694;BME280;7947;48.834;9.132;2023-04-28T15:56:02;97749.13;;;16.85;94.02
15694;BME280;7947;48.834;9.132;2023-04-28T15:59:05;97748.50;;;16.79;94.38
15694;BME280;7947;48.834;9.132;2023-04-28T16:02:08;97739.78;;;16.74;94.18
15694;BME280;7947;48.834;9.132;2023-04-28T16:05:12;97734.97;;;16.71;95.27
15694;BME280;7947;48.834;9.132;2023-04-28T16:08:16;97732.94;;;16.68;95.23
15694;BME280;7947;48.834;9.132;2023-04-28T16:11:19;97733.09;;;16.71;95.61
15694;BME280;7947;48.834;9.132;2023-04-28T16:14:22;97737.06;;;16.65;95.85
15694;BME280;7947;48.834;9.132;2023-04-28T16:17:25;97737.41;;;16.64;96.21
15694;BME280;7947;48.834;9.132;2023-04-28T16:20:29;97743.78;;;16.59;96.60
15694;BME280;7947;48.834;9.132;2023-04-28T16:23:35;97746.66;;;16.54;96.54
15694;BME280;7947;48.834;9.132;2023-04-28T16:26:38;97747.94;;;16.48;97.32
15694;BME280;7947;48.834;9.132;2023-04-28T16:29:41;97739.50;;;16.50;97.67
15694;BME280;7947;48.834;9.132;2023-04-28T16:32:44;97730.59;;;16.41;99.06
15694;BME280;7947;48.834;9.132;2023-04-28T16:35:52;97732.81;;;16.39;99.11